createdAt,value
2019-02-07T00:02:00.458Z,3.90
2019-02-07T00:04:30.537Z,3.80
2019-02-07T00:07:00.031Z,3.60
2019-02-07T00:09:31.922Z,3.40
2019-02-07T00:12:02.438Z,3.00
2019-02-07T00:14:39.538Z,2.70
2019-02-07T00:17:02.676Z,2.50
2019-02-07T00:19:32.543Z,2.30
2019-02-07T00:22:02.688Z,2.30
2019-02-07T00:24:42.593Z,2.10
2019-02-07T00:27:06.929Z,2.00
2019-02-07T00:29:36.120Z,2.00
2019-02-07T00:32:07.551Z,1.90
2019-02-07T00:34:36.785Z,1.80
2019-02-07T00:37:08.414Z,1.70
2019-02-07T00:39:38.172Z,1.70
2019-02-07T00:42:08.169Z,1.60
2019-02-07T00:44:38.047Z,1.60
2019-02-07T00:47:07.643Z,1.50
2019-02-07T00:49:37.592Z,1.60
2019-02-07T00:52:07.520Z,1.60
2019-02-07T00:54:37.039Z,1.60
2019-02-07T00:57:08.494Z,1.60
2019-02-07T00:59:38.522Z,1.60
2019-02-07T01:02:09.159Z,1.50
2019-02-07T01:04:38.959Z,1.50
2019-02-07T01:07:08.194Z,1.40
2019-02-07T01:09:37.696Z,1.40
2019-02-07T01:12:08.759Z,1.30
2019-02-07T01:14:39.248Z,1.10
2019-02-07T01:17:09.098Z,1.00
2019-02-07T01:19:39.434Z,0.90
2019-02-07T01:22:10.024Z,1.00
2019-02-07T01:24:40.374Z,1.00
2019-02-07T01:27:10.984Z,0.90
2019-02-07T01:29:41.150Z,0.70
2019-02-07T01:32:13.002Z,0.50
2019-02-07T01:34:42.663Z,0.50
2019-02-07T01:37:12.560Z,0.40
2019-02-07T01:39:43.635Z,0.40
2019-02-07T01:42:12.914Z,0.40
2019-02-07T01:44:42.030Z,0.30
2019-02-07T01:47:12.218Z,0.20
2019-02-07T01:49:42.926Z,0.10
2019-02-07T01:52:12.376Z,0.00
2019-02-07T01:54:42.149Z,0.10
2019-02-07T01:57:12.346Z,0.00
2019-02-07T01:59:43.076Z,0.10
2019-02-07T02:02:13.344Z,0.20
2019-02-07T02:04:43.349Z,0.10
2019-02-07T02:07:15.694Z,0.10
2019-02-07T02:09:46.859Z,0.10
2019-02-07T02:12:17.019Z,0.00
2019-02-07T02:14:46.723Z,0.00
2019-02-07T02:17:16.686Z,-0.10
2019-02-07T02:19:46.586Z,-0.20
2019-02-07T02:22:15.831Z,-0.30
2019-02-07T02:24:45.867Z,-0.40
2019-02-07T02:27:16.352Z,-0.40
2019-02-07T02:29:46.440Z,-0.40
2019-02-07T02:32:16.214Z,-0.50
2019-02-07T02:34:49.291Z,-0.50
2019-02-07T02:37:19.843Z,-0.50
2019-02-07T02:39:48.899Z,-0.40
2019-02-07T02:42:19.103Z,-0.40
2019-02-07T02:44:49.790Z,-0.50
2019-02-07T02:47:19.847Z,-0.50
2019-02-07T02:49:50.557Z,-0.50
2019-02-07T02:52:20.993Z,-0.40
2019-02-07T02:54:55.382Z,-0.40
2019-02-07T02:57:24.775Z,-0.40
2019-02-07T02:59:55.373Z,-0.30
2019-02-07T03:02:42.235Z,-0.40
2019-02-07T03:05:38.544Z,-0.40
2019-02-07T03:08:26.003Z,-0.50
2019-02-07T03:11:17.602Z,-0.60
2019-02-07T03:14:06.581Z,-0.70
2019-02-07T03:16:50.760Z,-0.70
2019-02-07T03:19:41.416Z,-0.60
2019-02-07T03:22:29.067Z,-0.70
2019-02-07T03:25:18.137Z,-0.80
2019-02-07T03:28:12.751Z,-0.90
2019-02-07T03:31:02.083Z,-1.00
2019-02-07T03:33:56.725Z,-0.90
2019-02-07T03:36:45.103Z,-0.80
2019-02-07T03:39:20.227Z,-0.60
2019-02-07T03:42:23.903Z,-0.60
2019-02-07T03:45:15.081Z,-0.70
2019-02-07T03:48:03.120Z,-0.80
2019-02-07T03:50:54.268Z,-0.80
2019-02-07T03:53:41.876Z,-0.80
2019-02-07T03:56:27.824Z,-0.80
2019-02-07T03:59:11.868Z,-0.80
2019-02-07T04:02:03.318Z,-0.60
2019-02-07T04:04:48.005Z,-0.70
2019-02-07T04:07:29.595Z,-0.70
2019-02-07T04:10:22.646Z,-0.70
2019-02-07T04:13:24.179Z,-0.70
2019-02-07T04:16:15.279Z,-0.70
2019-02-07T04:19:19.489Z,-0.70
2019-02-07T04:22:27.216Z,-0.80
2019-02-07T04:25:15.128Z,-0.80
2019-02-07T04:28:21.937Z,-0.80
2019-02-07T04:31:13.563Z,-0.80
2019-02-07T04:34:03.889Z,-0.80
2019-02-07T04:36:52.018Z,-0.80
2019-02-07T04:39:38.177Z,-0.80
2019-02-07T04:42:26.289Z,-0.70
2019-02-07T04:45:05.195Z,-0.60
2019-02-07T04:47:57.821Z,-0.70
2019-02-07T04:50:34.811Z,-0.80
2019-02-07T04:53:37.209Z,-0.80
2019-02-07T04:56:33.865Z,-0.80
2019-02-07T04:59:17.213Z,-0.90
2019-02-07T05:02:05.626Z,-1.00
2019-02-07T05:04:44.308Z,-1.10
2019-02-07T05:07:32.585Z,-1.10
2019-02-07T05:10:20.570Z,-1.20
2019-02-07T05:13:04.278Z,-1.20
2019-02-07T05:15:53.077Z,-1.20
2019-02-07T05:18:44.005Z,-1.10
2019-02-07T05:21:43.115Z,-1.20
2019-02-07T05:24:24.407Z,-1.20
2019-02-07T05:27:16.237Z,-1.30
2019-02-07T05:30:08.094Z,-1.30
2019-02-07T05:32:59.723Z,-1.40
2019-02-07T05:35:49.650Z,-1.40
2019-02-07T05:38:36.768Z,-1.40
2019-02-07T05:41:22.194Z,-1.50
2019-02-07T05:44:19.652Z,-1.40
2019-02-07T05:47:07.623Z,-1.40
2019-02-07T05:49:54.250Z,-1.40
2019-02-07T05:52:35.912Z,-1.50
2019-02-07T05:55:24.648Z,-1.50
2019-02-07T05:58:11.871Z,-1.60
2019-02-07T06:01:04.238Z,-1.60
2019-02-07T06:03:46.462Z,-1.60
2019-02-07T06:06:41.093Z,-1.60
2019-02-07T06:09:40.655Z,-1.50
2019-02-07T06:12:42.029Z,-1.50
2019-02-07T06:15:26.025Z,-1.60
2019-02-07T06:18:14.098Z,-1.60
2019-02-07T06:21:02.012Z,-1.60
2019-02-07T06:23:57.573Z,-1.50
2019-02-07T06:26:51.909Z,-1.60
2019-02-07T06:29:43.873Z,-1.60
2019-02-07T06:32:21.737Z,-1.60
2019-02-07T06:35:10.515Z,-1.80
2019-02-07T06:37:51.730Z,-1.80
2019-02-07T06:40:51.288Z,-1.70
2019-02-07T06:43:59.825Z,-1.70
2019-02-07T06:47:00.907Z,-1.60
2019-02-07T06:49:50.294Z,-1.30
2019-02-07T06:52:39.917Z,-1.10
2019-02-07T06:55:28.784Z,-0.80
2019-02-07T06:58:17.637Z,-0.70
2019-02-07T07:00:58.420Z,-0.40
2019-02-07T07:03:47.335Z,-0.10
2019-02-07T07:06:49.227Z,0.20
2019-02-07T07:09:42.809Z,0.30
2019-02-07T07:12:40.526Z,0.40
2019-02-07T07:15:49.487Z,0.70
2019-02-07T07:18:43.763Z,1.10
2019-02-07T07:21:35.359Z,1.40
2019-02-07T07:24:27.293Z,1.50
2019-02-07T07:27:14.002Z,1.90
2019-02-07T07:30:07.737Z,2.20
2019-02-07T07:33:08.568Z,2.40
2019-02-07T07:35:55.647Z,3.00
2019-02-07T07:38:42.888Z,3.20
2019-02-07T07:41:40.288Z,3.10
2019-02-07T07:44:28.808Z,3.10
2019-02-07T07:47:19.392Z,2.90
2019-02-07T07:50:02.001Z,3.10
2019-02-07T07:52:49.919Z,3.40
2019-02-07T07:55:36.594Z,3.50
2019-02-07T07:58:22.975Z,3.90
2019-02-07T08:01:10.098Z,4.10
2019-02-07T08:03:46.046Z,4.50
2019-02-07T08:06:25.582Z,4.70
2019-02-07T08:09:16.830Z,4.90
2019-02-07T08:12:07.123Z,5.30
2019-02-07T08:14:54.001Z,5.50
2019-02-07T08:17:47.586Z,5.50
2019-02-07T08:20:32.457Z,5.90
2019-02-07T08:23:22.080Z,6.20
2019-02-07T08:26:09.677Z,6.50
2019-02-07T08:28:48.703Z,6.50
2019-02-07T08:31:47.699Z,6.70
2019-02-07T08:34:49.127Z,7.30
2019-02-07T08:37:40.656Z,7.50
2019-02-07T08:40:38.181Z,7.60
2019-02-07T08:43:33.782Z,7.60
2019-02-07T08:46:27.277Z,7.40
2019-02-07T08:49:21.601Z,7.70
2019-02-07T08:52:10.142Z,7.90
2019-02-07T08:54:58.273Z,8.50
2019-02-07T08:57:58.828Z,8.70
2019-02-07T09:00:50.624Z,8.80
2019-02-07T09:03:40.313Z,9.50
2019-02-07T09:06:32.543Z,9.90
2019-02-07T09:09:12.022Z,10.50
2019-02-07T09:12:15.114Z,10.80
2019-02-07T09:15:02.718Z,10.70
2019-02-07T09:18:09.791Z,10.80
2019-02-07T09:20:51.114Z,11.10
2019-02-07T09:23:39.364Z,11.30
2019-02-07T09:26:43.692Z,11.50
2019-02-07T09:29:38.934Z,11.80
2019-02-07T09:32:26.290Z,12.10
2019-02-07T09:35:33.423Z,12.10
2019-02-07T09:38:36.549Z,12.30
2019-02-07T09:41:28.983Z,12.70
2019-02-07T09:44:11.060Z,13.00
2019-02-07T09:47:08.739Z,13.40
2019-02-07T09:49:47.338Z,13.40
2019-02-07T09:52:40.143Z,13.80
2019-02-07T09:55:26.884Z,14.10
2019-02-07T09:58:25.624Z,14.00
2019-02-07T10:01:30.510Z,14.00
2019-02-07T10:04:18.605Z,14.10
2019-02-07T10:07:06.569Z,14.50
2019-02-07T10:09:55.982Z,14.70
2019-02-07T10:12:55.636Z,14.50
2019-02-07T10:15:47.243Z,14.60
2019-02-07T10:18:32.739Z,14.80
2019-02-07T10:21:34.249Z,14.80
2019-02-07T10:24:21.836Z,15.20
2019-02-07T10:27:10.302Z,15.60
2019-02-07T10:29:58.827Z,15.90
2019-02-07T10:33:04.569Z,16.00
2019-02-07T10:35:54.062Z,16.40
2019-02-07T10:38:39.605Z,15.90
2019-02-07T10:41:35.404Z,15.80
2019-02-07T10:44:14.718Z,16.20
2019-02-07T10:47:03.966Z,16.20
2019-02-07T10:49:59.519Z,16.60
2019-02-07T10:52:45.064Z,16.20
2019-02-07T10:55:42.310Z,16.40
2019-02-07T10:58:47.137Z,16.00
2019-02-07T11:01:37.679Z,16.30
2019-02-07T11:04:27.255Z,16.60
2019-02-07T11:07:20.167Z,16.60
2019-02-07T11:10:12.165Z,16.80
2019-02-07T11:13:06.617Z,16.50
2019-02-07T11:15:54.497Z,16.30
2019-02-07T11:18:42.652Z,16.90
2019-02-07T11:21:42.584Z,16.90
2019-02-07T11:24:30.821Z,16.10
2019-02-07T11:27:34.589Z,16.40
2019-02-07T11:30:22.895Z,17.00
2019-02-07T11:33:08.480Z,17.20
2019-02-07T11:35:53.490Z,17.60
2019-02-07T11:38:42.686Z,17.60
2019-02-07T11:41:18.880Z,17.70
2019-02-07T11:44:06.896Z,17.20
2019-02-07T11:47:05.339Z,17.50
2019-02-07T11:49:56.265Z,17.60
2019-02-07T11:52:40.938Z,17.40
2019-02-07T11:55:32.141Z,17.40
2019-02-07T11:58:29.663Z,17.00
2019-02-07T12:01:21.687Z,17.30
2019-02-07T12:04:09.852Z,18.00
2019-02-07T12:06:50.322Z,17.90
2019-02-07T12:09:40.720Z,18.60
2019-02-07T12:12:32.397Z,18.40
2019-02-07T12:15:13.313Z,18.80
2019-02-07T12:18:02.032Z,18.40
2019-02-07T12:20:51.993Z,18.40
2019-02-07T12:23:40.610Z,18.20
2019-02-07T12:26:35.359Z,18.10
2019-02-07T12:29:24.522Z,18.50
2019-02-07T12:32:20.037Z,18.70
2019-02-07T12:35:09.927Z,19.50
2019-02-07T12:38:08.643Z,19.00
2019-02-07T12:41:02.787Z,19.30
2019-02-07T12:43:51.642Z,20.20
2019-02-07T12:46:38.367Z,19.40
2019-02-07T12:49:29.192Z,19.30
2019-02-07T12:52:30.124Z,20.20
2019-02-07T12:55:15.414Z,19.30
2019-02-07T12:58:03.035Z,18.90
2019-02-07T13:00:54.477Z,19.20
2019-02-07T13:03:43.847Z,18.70
2019-02-07T13:06:31.242Z,18.70
2019-02-07T13:09:33.167Z,18.20
2019-02-07T13:12:31.821Z,18.80
2019-02-07T13:15:21.626Z,18.70
2019-02-07T13:18:14.782Z,19.10
2019-02-07T13:21:02.155Z,19.60
2019-02-07T13:23:51.047Z,19.30
2019-02-07T13:26:32.655Z,19.00
2019-02-07T13:29:36.420Z,19.30
2019-02-07T13:32:26.271Z,19.60
2019-02-07T13:35:11.614Z,19.30
2019-02-07T13:38:02.344Z,20.10
2019-02-07T13:40:51.244Z,20.00
2019-02-07T13:43:47.542Z,19.40
2019-02-07T13:46:40.222Z,19.40
2019-02-07T13:49:30.114Z,19.40
2019-02-07T13:52:22.456Z,19.30
2019-02-07T13:55:21.114Z,19.40
2019-02-07T13:58:06.993Z,19.00
2019-02-07T14:00:45.965Z,18.70
2019-02-07T14:03:43.825Z,18.60
2019-02-07T14:06:27.890Z,18.20
2019-02-07T14:09:23.930Z,17.80
2019-02-07T14:12:13.644Z,18.40
2019-02-07T14:15:03.588Z,19.30
2019-02-07T14:17:51.629Z,20.00
2019-02-07T14:20:30.952Z,19.60
2019-02-07T14:23:24.062Z,19.10
2019-02-07T14:26:21.458Z,19.10
2019-02-07T14:29:10.692Z,18.80
2019-02-07T14:32:17.232Z,18.60
2019-02-07T14:35:07.141Z,18.70
2019-02-07T14:37:57.716Z,19.10
2019-02-07T14:40:50.670Z,19.50
2019-02-07T14:43:38.020Z,19.80
2019-02-07T14:46:30.109Z,20.20
2019-02-07T14:49:01.400Z,20.10
2019-02-07T14:51:32.289Z,20.50
2019-02-07T14:54:01.588Z,20.00
2019-02-07T14:56:33.123Z,19.50
2019-02-07T14:59:03.244Z,18.60
2019-02-07T15:01:34.547Z,17.60
2019-02-07T15:04:04.045Z,16.80
2019-02-07T15:06:34.965Z,16.10
2019-02-07T15:09:15.661Z,15.40
2019-02-07T15:11:46.635Z,14.90
2019-02-07T15:14:17.019Z,14.50
2019-02-07T15:16:48.229Z,14.20
2019-02-07T15:19:17.754Z,14.10
2019-02-07T15:21:49.459Z,14.00
2019-02-07T15:24:20.617Z,13.90
2019-02-07T15:26:50.877Z,13.90
2019-02-07T15:29:21.556Z,13.80
2019-02-07T15:31:50.918Z,13.80
2019-02-07T15:34:21.020Z,13.70
2019-02-07T15:36:53.454Z,13.70
2019-02-07T15:39:23.132Z,13.80
2019-02-07T15:41:54.647Z,13.70
2019-02-07T15:44:24.256Z,13.50
2019-02-07T15:46:57.542Z,13.40
2019-02-07T15:49:28.557Z,13.10
2019-02-07T15:51:59.631Z,13.20
2019-02-07T15:54:30.199Z,13.00
2019-02-07T15:57:00.739Z,13.00
2019-02-07T15:59:59.862Z,12.90
2019-02-07T16:02:40.480Z,12.90
2019-02-07T16:05:12.824Z,12.90
2019-02-07T16:07:43.852Z,12.80
2019-02-07T16:10:16.755Z,12.70
2019-02-07T16:12:47.774Z,12.40
2019-02-07T16:15:17.322Z,12.50
2019-02-07T16:17:47.005Z,12.60
2019-02-07T16:20:24.835Z,12.60
2019-02-07T16:22:55.404Z,12.40
2019-02-07T16:25:30.985Z,12.20
2019-02-07T16:28:01.721Z,12.00
2019-02-07T16:30:34.022Z,12.00
2019-02-07T16:33:06.700Z,11.80
2019-02-07T16:35:38.231Z,11.40
2019-02-07T16:38:11.979Z,11.30
2019-02-07T16:40:42.392Z,11.10
2019-02-07T16:43:13.758Z,10.70
2019-02-07T16:45:45.094Z,10.70
2019-02-07T16:48:16.820Z,10.90
2019-02-07T16:50:47.284Z,11.10
2019-02-07T16:53:17.902Z,11.10
2019-02-07T16:55:48.432Z,10.90
2019-02-07T16:58:21.715Z,10.90
2019-02-07T17:00:52.122Z,10.80
2019-02-07T17:03:23.062Z,10.70
2019-02-07T17:05:53.542Z,10.50
2019-02-07T17:08:24.212Z,10.50
2019-02-07T17:10:54.600Z,10.40
2019-02-07T17:13:25.370Z,10.40
2019-02-07T17:15:56.655Z,10.20
2019-02-07T17:18:27.063Z,10.10
2019-02-07T17:20:57.255Z,10.00
2019-02-07T17:23:28.548Z,10.00
2019-02-07T17:25:59.427Z,9.90
2019-02-07T17:28:31.623Z,9.40
2019-02-07T17:31:01.307Z,9.00
2019-02-07T17:33:32.262Z,9.00
2019-02-07T17:36:02.117Z,9.10
2019-02-07T17:38:31.669Z,9.10
2019-02-07T17:41:11.727Z,8.90
2019-02-07T17:43:41.454Z,8.70
2019-02-07T17:46:16.843Z,8.50
2019-02-07T17:48:47.800Z,8.40
2019-02-07T17:51:23.217Z,8.20
2019-02-07T17:53:54.989Z,8.10
2019-02-07T17:56:25.321Z,7.90
2019-02-07T17:58:54.762Z,7.90
2019-02-07T18:01:25.759Z,7.90
2019-02-07T18:03:57.755Z,7.80
2019-02-07T18:06:28.198Z,7.80
2019-02-07T18:08:59.305Z,7.70
2019-02-07T18:11:30.283Z,7.50
2019-02-07T18:14:01.736Z,7.50
2019-02-07T18:16:34.588Z,7.40
2019-02-07T18:19:04.710Z,7.30
2019-02-07T18:21:37.005Z,7.20
2019-02-07T18:24:11.540Z,7.10
2019-02-07T18:26:44.947Z,7.10
2019-02-07T18:29:15.490Z,7.00
2019-02-07T18:31:49.086Z,6.90
2019-02-07T18:34:20.811Z,6.70
2019-02-07T18:36:52.377Z,6.60
2019-02-07T18:39:24.354Z,6.50
2019-02-07T18:41:55.167Z,6.40
2019-02-07T18:44:27.595Z,6.40
2019-02-07T18:46:57.938Z,6.40
2019-02-07T18:49:29.383Z,6.40
2019-02-07T18:52:00.732Z,6.40
2019-02-07T18:54:31.486Z,6.60
2019-02-07T18:57:02.664Z,6.60
2019-02-07T18:59:34.089Z,6.40
2019-02-07T19:02:04.459Z,6.30
2019-02-07T19:04:37.029Z,6.20
2019-02-07T19:07:06.872Z,6.20
2019-02-07T19:09:46.177Z,6.10
2019-02-07T19:12:17.203Z,6.00
2019-02-07T19:14:47.178Z,6.00
2019-02-07T19:17:20.551Z,5.90
2019-02-07T19:19:50.035Z,5.80
2019-02-07T19:22:22.993Z,5.70
2019-02-07T19:24:54.523Z,5.60
2019-02-07T19:27:25.622Z,5.50
2019-02-07T19:29:57.636Z,5.40
2019-02-07T19:32:28.005Z,5.30
2019-02-07T19:34:58.978Z,5.20
2019-02-07T19:37:30.616Z,5.20
2019-02-07T19:40:00.604Z,5.10
2019-02-07T19:42:31.316Z,5.10
2019-02-07T19:45:01.797Z,5.20
2019-02-07T19:47:33.613Z,5.10
2019-02-07T19:50:05.742Z,5.00
2019-02-07T19:52:41.379Z,5.00
2019-02-07T19:55:15.374Z,5.00
2019-02-07T19:57:46.383Z,5.00
2019-02-07T20:00:23.933Z,5.20
2019-02-07T20:02:54.371Z,5.20
2019-02-07T20:05:25.381Z,5.10
2019-02-07T20:07:55.726Z,5.10
2019-02-07T20:10:26.889Z,5.00
2019-02-07T20:12:58.201Z,5.10
2019-02-07T20:15:33.215Z,5.10
2019-02-07T20:18:05.083Z,5.00
2019-02-07T20:20:35.945Z,4.90
2019-02-07T20:23:07.543Z,4.80
2019-02-07T20:25:38.336Z,4.80
2019-02-07T20:28:12.015Z,4.70
2019-02-07T20:30:44.238Z,4.60
2019-02-07T20:33:14.899Z,4.60
2019-02-07T20:35:44.701Z,4.60
2019-02-07T20:38:18.105Z,4.50
2019-02-07T20:40:51.398Z,4.30
2019-02-07T20:43:24.783Z,4.30
2019-02-07T20:45:56.236Z,4.50
2019-02-07T20:48:27.679Z,4.40
2019-02-07T20:50:59.245Z,4.40
2019-02-07T20:53:32.787Z,4.40
2019-02-07T20:56:05.812Z,4.30
2019-02-07T20:58:37.811Z,4.20
2019-02-07T21:01:07.377Z,4.20
2019-02-07T21:03:38.118Z,4.20
2019-02-07T21:06:13.200Z,4.10
2019-02-07T21:08:45.657Z,4.10
2019-02-07T21:11:15.903Z,4.00
2019-02-07T21:13:47.033Z,4.00
2019-02-07T21:16:17.740Z,3.90
2019-02-07T21:18:50.253Z,3.80
2019-02-07T21:21:21.720Z,3.80
2019-02-07T21:23:54.656Z,3.70
2019-02-07T21:26:25.134Z,3.60
2019-02-07T21:28:54.953Z,3.60
2019-02-07T21:31:26.661Z,3.40
2019-02-07T21:33:57.439Z,3.40
2019-02-07T21:36:28.051Z,3.50
2019-02-07T21:38:58.554Z,3.50
2019-02-07T21:41:31.805Z,3.50
2019-02-07T21:44:02.479Z,3.50
2019-02-07T21:46:32.092Z,3.50
2019-02-07T21:49:05.619Z,3.40
2019-02-07T21:51:39.312Z,3.50
2019-02-07T21:54:10.932Z,3.40
2019-02-07T21:56:40.746Z,3.20
2019-02-07T21:59:11.260Z,3.00
2019-02-07T22:01:41.359Z,2.90
2019-02-07T22:04:13.473Z,2.90
2019-02-07T22:06:43.882Z,2.80
2019-02-07T22:09:17.952Z,2.80
2019-02-07T22:11:51.945Z,2.70
2019-02-07T22:14:22.816Z,2.60
2019-02-07T22:16:52.250Z,2.50
2019-02-07T22:19:24.963Z,2.50
2019-02-07T22:21:56.147Z,2.40
2019-02-07T22:24:26.984Z,2.30
2019-02-07T22:26:56.973Z,2.30
2019-02-07T22:29:26.683Z,2.40
2019-02-07T22:31:57.556Z,2.50
2019-02-07T22:34:28.003Z,2.50
2019-02-07T22:36:57.911Z,2.60
2019-02-07T22:39:28.737Z,2.70
2019-02-07T22:41:59.369Z,2.90
2019-02-07T22:44:28.935Z,2.90
2019-02-07T22:46:58.025Z,2.90
2019-02-07T22:49:27.622Z,2.90
2019-02-07T22:51:58.789Z,2.80
2019-02-07T22:54:29.586Z,2.90
2019-02-07T22:56:59.910Z,3.00
2019-02-07T22:59:31.715Z,2.90
2019-02-07T23:02:03.335Z,2.90
2019-02-07T23:04:32.860Z,2.80
2019-02-07T23:07:02.516Z,2.90
2019-02-07T23:09:31.602Z,2.80
2019-02-07T23:12:02.044Z,2.80
2019-02-07T23:14:33.012Z,2.60
2019-02-07T23:17:02.718Z,2.50
2019-02-07T23:19:32.543Z,2.40
2019-02-07T23:22:02.513Z,2.30
2019-02-07T23:24:35.088Z,2.50
2019-02-07T23:27:05.716Z,2.70
2019-02-07T23:29:37.661Z,2.70
2019-02-07T23:32:07.403Z,3.00
2019-02-07T23:34:38.344Z,3.00
2019-02-07T23:37:09.412Z,2.90
2019-02-07T23:39:40.093Z,3.00
2019-02-07T23:42:10.808Z,3.00
2019-02-07T23:44:41.052Z,3.00
2019-02-07T23:47:11.352Z,2.80
2019-02-07T23:49:46.144Z,2.50
2019-02-07T23:52:17.030Z,2.30
2019-02-07T23:54:46.961Z,2.00
2019-02-07T23:57:18.304Z,2.00
2019-02-07T23:59:48.833Z,2.00
